Impacts METAR Board INFO
IDs:

KSAN - San Diego Intl Arpt, CA, US

Updated at: 1544 UTC 23 Jan 2018
Potential Impact None Slight Moderate High
Time23/03Z 23/04Z 23/05Z 23/06Z 23/07Z 23/08Z 23/09Z 23/10Z 23/11Z 23/12Z 23/13Z 23/14Z 23/15Z
VIS10 10 10 10 10 10 10 10 10 10 10 10 10
CIG-- -- -- -- -- -- -- -- -- -- -- -- --
CoverCLRCLRCLRCLRCLRCLRCLRCLRCLRCLRCLRCLRCLR
FltCatVFRVFRVFRVFRVFRVFRVFRVFRVFRVFRVFRVFRVFR
WX--------------------------
WDir0003030003600033000
WSpd0 0 0 3 3 0 0 3 0 0 3 0 0
WGst-- -- -- -- -- -- -- -- -- -- -- -- --
Raw hourly METARs
KSAN 230251Z 00000KT 10SM CLR 15/07 A3017 RMK AO2 SLP217 T01500067 50003
KSAN 230351Z 00000KT 10SM CLR 14/06 A3018 RMK AO2 SLP218 T01440056
KSAN 230451Z 00000KT 10SM CLR 13/05 A3018 RMK AO2 SLP220 T01280050
KSAN 230551Z 03003KT 10SM CLR 12/04 A3019 RMK AO2 SLP222 T01220044 10172 20122 53005
KSAN 230651Z 03003KT 10SM CLR 12/02 A3018 RMK AO2 SLP220 T01220022
KSAN 230751Z 00000KT 10SM CLR 11/02 A3016 RMK AO2 SLP213 T01110017 401890089
KSAN 230851Z 00000KT 10SM CLR 11/01 A3016 RMK AO2 SLP211 T01060011 58011
KSAN 230951Z 36003KT 10SM CLR 09/02 A3015 RMK AO2 SLP209 T00940017
KSAN 231051Z 00000KT 10SM CLR 09/01 A3015 RMK AO2 SLP208 T00940006
KSAN 231151Z 00000KT 10SM CLR 10/00 A3013 RMK AO2 SLP203 T01000000 10122 20094 58008
KSAN 231251Z 33003KT 10SM CLR 08/01 A3013 RMK AO2 SLP203 T00830006
KSAN 231351Z 00000KT 10SM CLR 09/M01 A3014 RMK AO2 SLP206 T00941006
KSAN 231451Z 00000KT 10SM CLR 09/M01 A3014 RMK AO2 SLP207 T00941011 53004